createdAt,value
2018-12-30T00:02:17.644Z,9.00
2018-12-30T00:04:48.219Z,9.00
2018-12-30T00:07:19.966Z,9.00
2018-12-30T00:09:50.218Z,8.90
2018-12-30T00:12:20.795Z,8.90
2018-12-30T00:14:51.210Z,8.90
2018-12-30T00:17:21.777Z,8.90
2018-12-30T00:19:52.193Z,8.90
2018-12-30T00:22:22.577Z,8.80
2018-12-30T00:24:52.986Z,8.80
2018-12-30T00:27:23.451Z,8.80
2018-12-30T00:29:53.770Z,8.80
2018-12-30T00:32:24.541Z,8.80
2018-12-30T00:34:56.054Z,8.80
2018-12-30T00:37:26.452Z,8.90
2018-12-30T00:39:56.855Z,8.80
2018-12-30T00:42:27.203Z,8.80
2018-12-30T00:44:57.956Z,8.80
2018-12-30T00:47:28.310Z,8.90
2018-12-30T00:49:58.669Z,8.80
2018-12-30T00:52:29.065Z,8.80
2018-12-30T00:54:59.488Z,8.80
2018-12-30T00:57:30.143Z,8.80
2018-12-30T01:00:00.580Z,8.80
2018-12-30T01:02:31.063Z,8.80
2018-12-30T01:05:01.588Z,8.80
2018-12-30T01:07:32.115Z,8.80
2018-12-30T01:10:02.733Z,8.90
2018-12-30T01:12:33.117Z,8.80
2018-12-30T01:15:03.574Z,8.80
2018-12-30T01:17:33.944Z,8.90
2018-12-30T01:20:04.420Z,8.90
2018-12-30T01:22:34.842Z,8.90
2018-12-30T01:25:05.555Z,8.90
2018-12-30T01:27:36.145Z,8.90
2018-12-30T01:30:06.788Z,8.90
2018-12-30T01:32:37.155Z,8.90
2018-12-30T01:35:07.683Z,8.80
2018-12-30T01:37:38.121Z,8.80
2018-12-30T01:40:08.566Z,8.80
2018-12-30T01:42:39.199Z,8.90
2018-12-30T01:45:09.914Z,8.90
2018-12-30T01:47:40.383Z,8.90
2018-12-30T01:50:10.790Z,8.80
2018-12-30T01:52:41.083Z,8.80
2018-12-30T01:55:11.536Z,8.90
2018-12-30T01:57:42.236Z,8.80
2018-12-30T02:00:12.520Z,8.80
2018-12-30T02:02:42.845Z,8.80
2018-12-30T02:05:13.216Z,8.80
2018-12-30T02:07:43.568Z,8.80
2018-12-30T02:10:14.130Z,8.80
2018-12-30T02:12:44.452Z,8.80
2018-12-30T02:15:16.708Z,8.80
2018-12-30T02:17:47.193Z,8.80
2018-12-30T02:20:17.877Z,8.80
2018-12-30T02:22:48.340Z,8.80
2018-12-30T02:25:18.636Z,8.80
2018-12-30T02:27:48.998Z,8.80
2018-12-30T02:30:19.359Z,8.80
2018-12-30T02:32:49.810Z,8.80
2018-12-30T02:35:20.136Z,8.80
2018-12-30T02:37:50.466Z,8.80
2018-12-30T02:40:20.706Z,8.80
2018-12-30T02:42:51.452Z,8.80
2018-12-30T02:45:21.703Z,8.80
2018-12-30T02:47:52.090Z,8.80
2018-12-30T02:50:25.212Z,8.80
2018-12-30T02:52:55.606Z,8.80
2018-12-30T02:55:25.907Z,8.80
2018-12-30T02:57:56.234Z,8.80
2018-12-30T03:00:26.575Z,8.80
2018-12-30T03:02:57.153Z,8.80
2018-12-30T03:05:29.619Z,8.80
2018-12-30T03:07:59.947Z,8.80
2018-12-30T03:10:30.373Z,8.80
2018-12-30T03:13:00.707Z,8.70
2018-12-30T03:15:31.223Z,8.60
2018-12-30T03:18:01.544Z,8.60
2018-12-30T03:20:31.924Z,8.50
2018-12-30T03:23:02.237Z,8.50
2018-12-30T03:25:32.997Z,8.40
2018-12-30T03:28:03.462Z,8.40
2018-12-30T03:30:33.994Z,8.40
2018-12-30T03:33:04.421Z,8.40
2018-12-30T03:35:34.739Z,8.40
2018-12-30T03:38:05.044Z,8.40
2018-12-30T03:40:35.432Z,8.50
2018-12-30T03:43:05.760Z,8.50
2018-12-30T03:45:36.018Z,8.50
2018-12-30T03:48:06.229Z,8.50
2018-12-30T03:50:36.548Z,8.50
2018-12-30T03:53:06.854Z,8.50
2018-12-30T03:55:37.152Z,8.50
2018-12-30T03:58:07.509Z,8.60
2018-12-30T04:00:37.900Z,8.50
2018-12-30T04:03:08.136Z,8.50
2018-12-30T04:05:38.566Z,8.50
2018-12-30T04:08:08.823Z,8.40
2018-12-30T04:10:39.277Z,8.40
2018-12-30T04:13:09.555Z,8.40
2018-12-30T04:15:39.934Z,8.40
2018-12-30T04:18:10.317Z,8.40
2018-12-30T04:20:40.746Z,8.40
2018-12-30T04:23:11.007Z,8.40
2018-12-30T04:25:41.345Z,8.40
2018-12-30T04:28:11.571Z,8.40
2018-12-30T04:30:41.890Z,8.40
2018-12-30T04:33:12.140Z,8.40
2018-12-30T04:35:43.437Z,8.50
2018-12-30T04:38:13.691Z,8.50
2018-12-30T04:40:43.995Z,8.50
2018-12-30T04:43:14.426Z,8.50
2018-12-30T04:45:44.791Z,8.50
2018-12-30T04:48:15.114Z,8.60
2018-12-30T04:50:45.453Z,8.50
2018-12-30T04:53:15.696Z,8.60
2018-12-30T04:55:46.051Z,8.60
2018-12-30T04:58:16.312Z,8.60
2018-12-30T05:00:46.972Z,8.60
2018-12-30T05:03:17.277Z,8.70
2018-12-30T05:05:47.795Z,8.60
2018-12-30T05:08:18.132Z,8.60
2018-12-30T05:10:48.488Z,8.60
2018-12-30T05:13:18.878Z,8.60
2018-12-30T05:15:49.188Z,8.60
2018-12-30T05:18:19.431Z,8.50
2018-12-30T05:20:49.708Z,8.50
2018-12-30T05:23:20.150Z,8.40
2018-12-30T05:25:50.422Z,8.40
2018-12-30T05:28:20.728Z,8.30
2018-12-30T05:30:51.036Z,8.30
2018-12-30T05:33:21.326Z,8.30
2018-12-30T05:35:51.893Z,8.20
2018-12-30T05:38:22.246Z,8.20
2018-12-30T05:40:52.672Z,8.20
2018-12-30T05:43:22.999Z,8.10
2018-12-30T05:45:53.437Z,8.10
2018-12-30T05:48:23.690Z,8.10
2018-12-30T05:50:54.056Z,8.00
2018-12-30T05:53:24.364Z,8.00
2018-12-30T05:55:55.075Z,8.00
2018-12-30T05:58:25.400Z,8.00
2018-12-30T06:00:55.788Z,8.00
2018-12-30T06:03:26.111Z,8.00
2018-12-30T06:05:56.556Z,8.00
2018-12-30T06:08:26.884Z,7.90
2018-12-30T06:10:57.164Z,7.90
2018-12-30T06:13:27.472Z,7.90
2018-12-30T06:15:58.008Z,7.90
2018-12-30T06:18:28.342Z,7.80
2018-12-30T06:20:58.652Z,7.80
2018-12-30T06:23:28.936Z,7.80
2018-12-30T06:25:59.442Z,7.80
2018-12-30T06:28:29.796Z,7.90
2018-12-30T06:31:00.211Z,7.90
2018-12-30T06:33:30.574Z,7.90
2018-12-30T06:36:00.923Z,7.90
2018-12-30T06:38:31.284Z,7.90
2018-12-30T06:41:01.693Z,7.80
2018-12-30T06:43:31.936Z,7.70
2018-12-30T06:46:02.302Z,7.60
2018-12-30T06:48:32.590Z,7.60
2018-12-30T06:51:05.172Z,7.60
2018-12-30T06:53:35.534Z,7.60
2018-12-30T06:56:05.876Z,7.60
2018-12-30T06:58:36.191Z,7.60
2018-12-30T07:01:06.527Z,7.60
2018-12-30T07:03:36.828Z,7.50
2018-12-30T07:06:07.264Z,7.50
2018-12-30T07:08:37.528Z,7.50
2018-12-30T07:11:07.916Z,7.50
2018-12-30T07:13:38.161Z,7.50
2018-12-30T07:16:08.586Z,7.50
2018-12-30T07:18:38.886Z,7.50
2018-12-30T07:21:09.204Z,7.50
2018-12-30T07:23:39.456Z,7.40
2018-12-30T07:26:09.872Z,7.40
2018-12-30T07:28:40.224Z,7.40
2018-12-30T07:31:10.625Z,7.40
2018-12-30T07:33:40.925Z,7.50
2018-12-30T07:36:11.376Z,7.40
2018-12-30T07:38:44.539Z,7.50
2018-12-30T07:41:20.798Z,7.50
2018-12-30T07:43:51.245Z,7.50
2018-12-30T07:46:22.092Z,7.50
2018-12-30T07:48:52.618Z,7.50
2018-12-30T07:51:23.211Z,7.50
2018-12-30T07:53:53.649Z,7.50
2018-12-30T07:56:24.114Z,7.50
2018-12-30T07:58:54.417Z,7.50
2018-12-30T08:01:24.739Z,7.50
2018-12-30T08:03:55.037Z,7.50
2018-12-30T08:06:25.380Z,7.50
2018-12-30T08:08:55.699Z,7.50
2018-12-30T08:11:26.103Z,7.60
2018-12-30T08:13:56.365Z,7.50
2018-12-30T08:16:26.754Z,7.60
2018-12-30T08:18:57.207Z,7.60
2018-12-30T08:21:27.597Z,7.60
2018-12-30T08:23:57.940Z,7.60
2018-12-30T08:26:28.430Z,7.60
2018-12-30T08:28:58.805Z,7.70
2018-12-30T08:31:29.522Z,7.70
2018-12-30T08:33:59.881Z,7.70
2018-12-30T08:36:30.368Z,7.80
2018-12-30T08:39:00.730Z,7.90
2018-12-30T08:41:33.314Z,7.90
2018-12-30T08:44:03.792Z,7.90
2018-12-30T08:46:34.248Z,7.90
2018-12-30T08:49:04.636Z,7.90
2018-12-30T08:51:35.233Z,8.00
2018-12-30T08:54:05.694Z,7.90
2018-12-30T08:56:36.056Z,8.00
2018-12-30T08:59:06.444Z,8.00
2018-12-30T09:01:36.847Z,8.10
2018-12-30T09:04:07.431Z,8.10
2018-12-30T09:06:38.669Z,8.20
2018-12-30T09:09:09.739Z,8.20
2018-12-30T09:11:40.217Z,8.30
2018-12-30T09:14:10.618Z,8.40
2018-12-30T09:16:41.042Z,8.40
2018-12-30T09:19:11.399Z,8.40
2018-12-30T09:21:41.825Z,8.50
2018-12-30T09:24:14.448Z,8.50
2018-12-30T09:26:45.357Z,8.60
2018-12-30T09:29:15.779Z,8.60
2018-12-30T09:31:46.120Z,8.70
2018-12-30T09:34:16.494Z,8.80
2018-12-30T09:36:46.880Z,8.80
2018-12-30T09:39:17.268Z,8.80
2018-12-30T09:41:47.706Z,8.80
2018-12-30T09:44:18.244Z,8.80
2018-12-30T09:46:49.769Z,8.80
2018-12-30T09:49:21.937Z,8.80
2018-12-30T09:51:52.455Z,8.80
2018-12-30T09:54:22.809Z,8.70
2018-12-30T09:56:53.198Z,8.80
2018-12-30T09:59:26.609Z,8.90
2018-12-30T10:01:59.806Z,8.90
2018-12-30T10:04:30.830Z,8.90
2018-12-30T10:07:01.223Z,9.00
2018-12-30T10:09:31.628Z,9.00
2018-12-30T10:12:03.557Z,9.00
2018-12-30T10:14:34.648Z,9.10
2018-12-30T10:17:05.028Z,9.10
2018-12-30T10:19:35.335Z,9.10
2018-12-30T10:22:06.516Z,9.20
2018-12-30T10:24:37.034Z,9.20
2018-12-30T10:27:07.545Z,9.30
2018-12-30T10:29:37.958Z,9.30
2018-12-30T10:32:11.017Z,9.30
2018-12-30T10:34:44.080Z,9.30
2018-12-30T10:37:14.491Z,9.30
2018-12-30T10:39:44.932Z,9.40
2018-12-30T10:42:17.895Z,9.40
2018-12-30T10:44:48.354Z,9.50
2018-12-30T10:47:18.680Z,9.50
2018-12-30T10:49:49.800Z,9.50
2018-12-30T10:52:23.088Z,9.50
2018-12-30T10:54:53.534Z,9.50
2018-12-30T10:57:24.056Z,9.60
2018-12-30T10:59:54.423Z,9.60
2018-12-30T11:02:24.949Z,9.60
2018-12-30T11:04:55.576Z,9.70
2018-12-30T11:07:26.307Z,9.60
2018-12-30T11:09:56.649Z,9.70
2018-12-30T11:12:27.005Z,9.60
2018-12-30T11:14:59.400Z,9.70
2018-12-30T11:17:29.859Z,9.60
2018-12-30T11:20:00.235Z,9.70
2018-12-30T11:22:30.561Z,9.60
2018-12-30T11:25:08.118Z,9.70
2018-12-30T11:27:41.060Z,9.60
2018-12-30T11:30:13.397Z,9.60
2018-12-30T11:32:44.327Z,9.70
2018-12-30T11:35:14.965Z,9.70
2018-12-30T11:37:45.346Z,9.70
2018-12-30T11:40:17.309Z,9.70
2018-12-30T11:42:50.740Z,9.70
2018-12-30T11:45:21.331Z,9.70
2018-12-30T11:47:52.061Z,9.70
2018-12-30T11:50:22.577Z,9.70
2018-12-30T11:52:53.530Z,9.70
2018-12-30T11:55:23.894Z,9.70
2018-12-30T11:57:54.357Z,9.80
2018-12-30T12:00:24.725Z,9.80
2018-12-30T12:02:55.396Z,9.80
2018-12-30T12:05:25.820Z,9.80
2018-12-30T12:07:56.192Z,9.80
2018-12-30T12:10:26.582Z,9.80
2018-12-30T12:12:56.990Z,9.80
2018-12-30T12:15:30.211Z,9.80
2018-12-30T12:18:00.639Z,9.80
2018-12-30T12:20:31.089Z,9.70
2018-12-30T12:23:01.493Z,9.60
2018-12-30T12:25:31.999Z,9.60
2018-12-30T12:28:02.443Z,9.60
2018-12-30T12:30:32.907Z,9.60
2018-12-30T12:33:03.333Z,9.50
2018-12-30T12:35:33.751Z,9.50
2018-12-30T12:38:04.433Z,9.50
2018-12-30T12:40:35.555Z,9.50
2018-12-30T12:43:05.931Z,9.50
2018-12-30T12:45:36.285Z,9.40
2018-12-30T12:48:06.687Z,9.40
2018-12-30T12:50:36.945Z,9.40
2018-12-30T12:53:07.319Z,9.40
2018-12-30T12:55:37.695Z,9.40
2018-12-30T12:58:09.285Z,9.40
2018-12-30T13:00:39.559Z,9.50
2018-12-30T13:03:10.038Z,9.50
2018-12-30T13:05:40.335Z,9.40
2018-12-30T13:08:10.791Z,9.30
2018-12-30T13:10:42.723Z,9.40
2018-12-30T13:13:13.214Z,9.40
2018-12-30T13:15:45.998Z,9.30
2018-12-30T13:18:17.455Z,9.30
2018-12-30T13:20:47.772Z,9.30
2018-12-30T13:23:18.202Z,9.30
2018-12-30T13:25:48.629Z,9.30
2018-12-30T13:28:19.016Z,9.30
2018-12-30T13:30:49.340Z,9.30
2018-12-30T13:33:21.269Z,9.30
2018-12-30T13:35:51.584Z,9.30
2018-12-30T13:38:28.272Z,9.30
2018-12-30T13:40:54.030Z,9.30
2018-12-30T13:43:26.103Z,9.40
2018-12-30T13:45:57.338Z,9.40
2018-12-30T13:48:29.030Z,9.40
2018-12-30T13:50:59.549Z,9.40
2018-12-30T13:53:29.940Z,9.40
2018-12-30T13:56:02.412Z,9.40
2018-12-30T13:58:32.996Z,9.40
2018-12-30T14:01:03.444Z,9.40
2018-12-30T14:03:33.985Z,9.40
2018-12-30T14:06:04.395Z,9.40
2018-12-30T14:08:35.007Z,9.40
2018-12-30T14:11:06.123Z,9.40
2018-12-30T14:13:36.508Z,9.40
2018-12-30T14:16:08.105Z,9.40
2018-12-30T14:18:38.705Z,9.40
2018-12-30T14:21:09.875Z,9.50
2018-12-30T14:23:40.763Z,9.50
2018-12-30T14:26:12.201Z,9.50
2018-12-30T14:28:42.469Z,9.50
2018-12-30T14:31:12.939Z,9.50
2018-12-30T14:33:43.283Z,9.50
2018-12-30T14:36:13.702Z,9.50
2018-12-30T14:38:46.924Z,9.40
2018-12-30T14:41:17.485Z,9.40
2018-12-30T14:43:47.906Z,9.40
2018-12-30T14:46:18.282Z,9.40
2018-12-30T14:48:48.585Z,9.40
2018-12-30T14:51:18.860Z,9.40
2018-12-30T14:53:51.157Z,9.40
2018-12-30T14:56:21.599Z,9.40
2018-12-30T14:58:52.054Z,9.40
2018-12-30T15:01:24.696Z,9.40
2018-12-30T15:03:54.992Z,9.50
2018-12-30T15:06:25.275Z,9.40
2018-12-30T15:09:00.245Z,9.40
2018-12-30T15:11:30.753Z,9.40
2018-12-30T15:14:00.994Z,9.40
2018-12-30T15:16:31.319Z,9.40
2018-12-30T15:19:01.819Z,9.40
2018-12-30T15:21:32.159Z,9.40
2018-12-30T15:24:02.585Z,9.40
2018-12-30T15:26:34.619Z,9.40
2018-12-30T15:29:05.082Z,9.40
2018-12-30T15:31:35.551Z,9.40
2018-12-30T15:34:06.011Z,9.40
2018-12-30T15:36:36.401Z,9.40
2018-12-30T15:39:08.525Z,9.40
2018-12-30T15:41:38.883Z,9.40
2018-12-30T15:44:09.262Z,9.30
2018-12-30T15:46:42.444Z,9.40
2018-12-30T15:49:12.864Z,9.40
2018-12-30T15:51:43.314Z,9.40
2018-12-30T15:54:13.870Z,9.40
2018-12-30T15:56:45.742Z,9.40
2018-12-30T15:59:16.840Z,9.40
2018-12-30T16:01:47.608Z,9.40
2018-12-30T16:04:18.069Z,9.40
2018-12-30T16:06:55.017Z,9.40
2018-12-30T16:09:27.934Z,9.40
2018-12-30T16:11:59.034Z,9.50
2018-12-30T16:14:29.850Z,9.40
2018-12-30T16:17:03.852Z,9.50
2018-12-30T16:19:34.517Z,9.50
2018-12-30T16:22:05.165Z,9.50
2018-12-30T16:24:35.815Z,9.50
2018-12-30T16:27:06.542Z,9.50
2018-12-30T16:29:37.012Z,9.60
2018-12-30T16:32:07.788Z,9.60
2018-12-30T16:34:38.175Z,9.60
2018-12-30T16:37:08.646Z,9.60
2018-12-30T16:39:39.357Z,9.60
2018-12-30T16:42:09.856Z,9.60
2018-12-30T16:44:40.810Z,9.60
2018-12-30T16:47:11.290Z,9.60
2018-12-30T16:49:41.641Z,9.60
2018-12-30T16:52:13.698Z,9.60
2018-12-30T16:54:44.276Z,9.50
2018-12-30T16:57:14.694Z,9.50
2018-12-30T16:59:45.084Z,9.50
2018-12-30T17:02:15.475Z,9.60
2018-12-30T17:04:45.940Z,9.50
2018-12-30T17:07:17.725Z,9.60
2018-12-30T17:09:47.953Z,9.50
2018-12-30T17:12:18.315Z,9.50
2018-12-30T17:14:48.676Z,9.50
2018-12-30T17:17:19.092Z,9.50
2018-12-30T17:19:49.390Z,9.50
2018-12-30T17:22:19.795Z,9.50
2018-12-30T17:24:50.634Z,9.50
2018-12-30T17:27:21.079Z,9.50
2018-12-30T17:29:51.432Z,9.60
2018-12-30T17:32:21.828Z,9.50
2018-12-30T17:34:52.080Z,9.50
2018-12-30T17:37:22.376Z,9.50
2018-12-30T17:39:52.723Z,9.50
2018-12-30T17:42:23.113Z,9.50
2018-12-30T17:44:53.457Z,9.50
2018-12-30T17:47:23.889Z,9.50
2018-12-30T17:49:54.271Z,9.50
2018-12-30T17:52:24.717Z,9.60
2018-12-30T17:54:55.068Z,9.60
2018-12-30T17:57:26.918Z,9.60
2018-12-30T17:59:57.231Z,9.60
2018-12-30T18:02:27.758Z,9.60
2018-12-30T18:04:58.164Z,9.60
2018-12-30T18:07:28.836Z,9.60
2018-12-30T18:09:59.227Z,9.60
2018-12-30T18:12:29.630Z,9.60
2018-12-30T18:15:00.000Z,9.60
2018-12-30T18:17:30.390Z,9.60
2018-12-30T18:20:00.740Z,9.60
2018-12-30T18:22:31.310Z,9.60
2018-12-30T18:25:01.687Z,9.60
2018-12-30T18:27:32.049Z,9.60
2018-12-30T18:30:02.405Z,9.60
2018-12-30T18:32:32.731Z,9.60
2018-12-30T18:35:03.070Z,9.60
2018-12-30T18:37:33.539Z,9.60
2018-12-30T18:40:05.129Z,9.60
2018-12-30T18:42:35.439Z,9.60
2018-12-30T18:45:06.499Z,9.60
2018-12-30T18:47:36.891Z,9.60
2018-12-30T18:50:07.973Z,9.60
2018-12-30T18:52:38.399Z,9.60
2018-12-30T18:55:08.744Z,9.60
2018-12-30T18:57:39.115Z,9.60
2018-12-30T19:00:10.771Z,9.60
2018-12-30T19:02:42.933Z,9.60
2018-12-30T19:05:13.217Z,9.60
2018-12-30T19:07:45.244Z,9.60
2018-12-30T19:10:15.832Z,9.70
2018-12-30T19:12:47.920Z,9.60
2018-12-30T19:15:23.947Z,9.60
2018-12-30T19:17:55.593Z,9.60
2018-12-30T19:20:26.152Z,9.60
2018-12-30T19:22:56.842Z,9.70
2018-12-30T19:25:27.219Z,9.70
2018-12-30T19:27:57.679Z,9.60
2018-12-30T19:30:28.123Z,9.60
2018-12-30T19:32:58.486Z,9.60
2018-12-30T19:35:28.928Z,9.60
2018-12-30T19:38:01.009Z,9.60
2018-12-30T19:40:31.496Z,9.60
2018-12-30T19:43:02.197Z,9.60
2018-12-30T19:45:32.653Z,9.70
2018-12-30T19:48:03.141Z,9.70
2018-12-30T19:50:33.820Z,9.70
2018-12-30T19:53:04.480Z,9.70
2018-12-30T19:55:35.190Z,9.70
2018-12-30T19:58:06.244Z,9.70
2018-12-30T20:00:37.745Z,9.70
2018-12-30T20:03:08.428Z,9.60
2018-12-30T20:05:39.097Z,9.60
2018-12-30T20:08:10.580Z,9.60
2018-12-30T20:10:44.999Z,9.60
2018-12-30T20:13:15.650Z,9.60
2018-12-30T20:15:47.845Z,9.60
2018-12-30T20:18:20.116Z,9.60
2018-12-30T20:20:50.866Z,9.60
2018-12-30T20:23:21.616Z,9.60
2018-12-30T20:25:53.437Z,9.60
2018-12-30T20:28:23.906Z,9.60
2018-12-30T20:30:54.967Z,9.60
2018-12-30T20:33:25.472Z,9.60
2018-12-30T20:35:55.953Z,9.60
2018-12-30T20:38:26.598Z,9.60
2018-12-30T20:40:57.185Z,9.60
2018-12-30T20:43:27.767Z,9.60
2018-12-30T20:45:58.451Z,9.60
2018-12-30T20:48:29.019Z,9.60
2018-12-30T20:51:02.299Z,9.60
2018-12-30T20:53:34.374Z,9.60
2018-12-30T20:56:04.772Z,9.60
2018-12-30T20:58:35.107Z,9.60
2018-12-30T21:01:05.412Z,9.60
2018-12-30T21:03:35.772Z,9.60
2018-12-30T21:06:06.180Z,9.60
2018-12-30T21:08:36.718Z,9.60
2018-12-30T21:11:08.515Z,9.60
2018-12-30T21:13:39.060Z,9.60
2018-12-30T21:16:09.450Z,9.60
2018-12-30T21:18:39.788Z,9.60
2018-12-30T21:21:10.230Z,9.60
2018-12-30T21:23:40.658Z,9.60
2018-12-30T21:26:10.943Z,9.60
2018-12-30T21:28:41.234Z,9.60
2018-12-30T21:31:11.526Z,9.60
2018-12-30T21:33:43.498Z,9.70
2018-12-30T21:36:13.844Z,9.70
2018-12-30T21:38:44.105Z,9.60
2018-12-30T21:41:14.373Z,9.70
2018-12-30T21:43:47.561Z,9.70
2018-12-30T21:46:17.864Z,9.70
2018-12-30T21:48:48.369Z,9.70
2018-12-30T21:51:18.629Z,9.70
2018-12-30T21:53:48.959Z,9.70
2018-12-30T21:56:20.225Z,9.70
2018-12-30T21:58:50.613Z,9.70
2018-12-30T22:01:21.043Z,9.70
2018-12-30T22:03:51.489Z,9.70
2018-12-30T22:06:21.875Z,9.70
2018-12-30T22:08:52.287Z,9.70
2018-12-30T22:11:22.815Z,9.70
2018-12-30T22:13:53.312Z,9.70
2018-12-30T22:16:23.879Z,9.70
2018-12-30T22:18:56.146Z,9.70
2018-12-30T22:21:27.106Z,9.70
2018-12-30T22:23:57.563Z,9.70
2018-12-30T22:26:27.952Z,9.70
2018-12-30T22:28:58.280Z,9.70
2018-12-30T22:31:28.680Z,9.70
2018-12-30T22:34:00.950Z,9.70
2018-12-30T22:36:31.444Z,9.70
2018-12-30T22:39:07.083Z,9.70
2018-12-30T22:41:37.463Z,9.70
2018-12-30T22:44:09.439Z,9.70
2018-12-30T22:46:39.783Z,9.70
2018-12-30T22:49:10.284Z,9.70
2018-12-30T22:51:40.657Z,9.70
2018-12-30T22:54:14.128Z,9.70
2018-12-30T22:56:44.509Z,9.70
2018-12-30T22:59:14.956Z,9.60
2018-12-30T23:01:46.620Z,9.70
2018-12-30T23:04:21.137Z,9.70
2018-12-30T23:06:51.502Z,9.70
2018-12-30T23:09:21.981Z,9.70
2018-12-30T23:11:52.384Z,9.70
2018-12-30T23:14:22.675Z,9.70
2018-12-30T23:16:54.102Z,9.70
2018-12-30T23:19:24.457Z,9.70
2018-12-30T23:21:54.873Z,9.70
2018-12-30T23:24:25.363Z,9.70
2018-12-30T23:26:55.830Z,9.70
2018-12-30T23:29:26.240Z,9.80
2018-12-30T23:31:56.739Z,9.80
2018-12-30T23:34:28.323Z,9.80
2018-12-30T23:36:58.701Z,9.80
2018-12-30T23:39:29.819Z,9.80
2018-12-30T23:42:00.293Z,9.80
2018-12-30T23:44:30.667Z,9.80
2018-12-30T23:47:01.068Z,9.80
2018-12-30T23:49:31.372Z,9.80
2018-12-30T23:52:03.832Z,9.80
2018-12-30T23:54:34.183Z,9.80
2018-12-30T23:57:04.588Z,9.80
2018-12-30T23:59:35.060Z,9.80
